Date,TemperatureHighF,TemperatureAvgF,TemperatureLowF,DewpointHighF,DewpointAvgF,DewpointLowF,HumidityHigh,HumidityAvg,HumidityLow,PressureMaxIn,PressureMinIn,WindSpeedMaxMPH,WindSpeedAvgMPH,GustSpeedMaxMPH,PrecipitationSumIn
2012-1-1,44.9,38.1,32.9,41.9,34.3,25.9,93,86,74,29.89,29.42,19,7,30,0.03
2012-1-2,32.9,28.3,21.2,26.1,20.0,12.5,80,71,59,30.09,29.74,18,10,33,0.00
2012-1-3,22.9,19.7,17.9,13.5,9.6,5.9,74,65,52,30.25,30.10,16,6,25,0.00
2012-1-4,36.8,29.1,22.1,27.8,20.4,13.6,78,70,61,30.14,29.80,12,5,19,0.00
2012-1-5,41.8,35.1,29.9,31.7,28.2,24.8,87,76,59,29.94,29.61,12,4,22,0.00
2012-1-6,56.0,45.1,37.0,39.2,35.8,32.0,84,71,51,29.64,29.57,12,5,21,0.00
2012-1-7,45.0,41.0,34.2,37.9,31.8,25.3,77,70,61,30.11,29.59,15,6,25,0.00
2012-1-8,39.0,34.3,29.4,27.1,24.9,23.6,82,69,55,30.31,30.11,5,1,13,0.00
2012-1-9,42.2,34.9,27.0,30.0,26.0,22.7,87,71,53,30.23,29.83,17,4,23,0.00
2012-1-10,48.3,40.0,32.6,34.0,31.2,29.5,88,72,50,29.98,29.83,9,2,20,0.00
2012-1-11,45.1,38.5,30.1,36.7,33.1,27.8,92,81,68,29.83,29.45,4,1,9,0.00
2012-1-12,39.7,37.6,29.8,37.5,35.4,26.1,94,92,86,29.38,29.23,19,5,21,0.21
2012-1-13,27.9,24.4,21.7,24.5,19.7,16.5,87,82,75,29.89,29.28,13,7,27,0.00
2012-1-14,24.3,20.4,15.3,18.1,15.1,10.4,89,80,73,30.23,29.90,7,2,12,0.00
2012-1-15,28.1,19.6,11.6,19.2,12.8,5.5,82,75,63,30.44,30.24,9,2,17,0.00
2012-1-16,43.8,33.9,23.5,42.2,28.5,17.7,94,80,69,30.29,29.73,16,5,21,0.03
2012-1-17,43.8,38.5,26.4,42.5,36.1,20.2,95,91,76,29.90,29.43,15,4,32,0.44
2012-1-18,26.4,23.6,20.9,19.7,14.5,11.9,79,68,60,30.22,29.93,15,6,27,0.00
2012-1-19,29.4,21.3,9.0,25.9,13.9,1.5,92,73,60,30.09,29.69,23,8,32,0.00
2012-1-20,17.6,12.4,5.2,13.1,5.8,0.6,88,75,62,30.28,30.09,4,1,11,0.00
2012-1-21,30.8,19.1,11.6,18.2,13.1,8.2,87,78,59,30.30,30.07,10,1,12,0.10
2012-1-22,35.7,25.6,12.7,34.4,22.5,9.1,95,88,82,30.25,29.82,17,4,20,0.01
2012-1-23,49.8,41.1,33.8,47.9,38.6,28.5,96,91,80,29.81,29.37,21,7,37,0.33
2012-1-24,33.8,32.8,31.2,27.8,26.2,24.2,80,76,73,30.28,29.74,17,7,31,0.00
2012-1-25,32.3,30.4,28.9,27.1,24.5,22.9,91,78,74,30.34,30.15,6,2,11,0.00
2012-1-26,36.2,32.9,28.5,33.3,30.7,26.5,94,92,88,30.16,29.50,4,2,13,0.20
2012-1-27,39.7,35.3,32.3,33.6,31.1,27.1,94,85,64,29.90,29.44,15,5,25,0.13
2012-1-28,36.4,32.4,28.8,32.6,26.1,19.4,93,78,54,29.98,29.65,23,8,39,0.03
2012-1-29,31.5,28.7,24.8,28.8,23.6,15.4,91,81,67,30.15,29.82,13,5,20,0.02
2012-1-30,35.1,26.1,15.1,30.8,21.3,11.9,89,82,70,30.21,29.87,16,2,20,0.00
2012-1-31,56.0,45.8,34.6,46.2,38.6,30.8,87,76,61,29.87,29.73,20,7,29,0.07
2012-2-1,51.2,43.6,37.5,47.2,37.6,31.9,87,79,71,30.08,29.73,14,5,21,0.00
2012-2-2,37.8,35.6,29.4,31.6,29.9,26.3,88,80,71,30.36,30.07,7,2,13,0.00
2012-2-3,40.4,35.5,28.5,34.4,30.6,25.7,90,82,76,30.44,30.35,7,2,12,0.00
2012-2-4,45.0,35.4,28.0,30.7,28.3,24.4,92,76,56,30.36,30.13,6,0,8,0.00
2012-2-5,44.6,34.4,26.1,33.5,28.0,23.3,90,78,57,30.19,30.10,6,1,11,0.00
2012-2-6,51.3,38.5,30.3,31.3,29.0,27.1,90,71,40,30.12,29.93,17,6,24,0.00
2012-2-7,35.6,32.0,24.1,30.4,26.1,18.2,86,79,74,30.35,30.05,9,3,20,0.00
2012-2-8,35.9,27.8,22.4,20.5,18.2,14.7,81,68,49,30.33,30.16,15,3,18,0.00
2012-2-9,40.9,31.7,25.0,23.2,21.1,18.9,80,66,45,30.17,30.04,16,6,22,0.00
2012-2-10,32.4,28.3,20.6,29.6,24.4,17.9,91,85,77,30.05,29.82,10,5,23,0.00
2012-2-11,20.5,16.4,12.9,17.0,10.9,6.5,89,79,67,30.16,29.88,20,9,29,0.00
2012-2-12,30.5,24.0,17.7,18.6,15.2,11.1,76,69,56,30.14,30.04,18,9,26,0.00
2012-2-13,38.0,31.6,26.2,19.3,17.7,14.8,71,57,40,30.06,29.93,14,6,22,0.00
2012-2-14,34.3,32.2,29.0,29.9,26.9,18.2,91,81,56,29.97,29.81,9,3,16,0.02
2012-2-15,40.7,36.0,32.8,32.6,30.4,28.8,89,80,71,30.14,29.98,13,4,21,0.04
2012-2-16,42.1,38.1,34.3,40.5,35.3,30.0,95,90,78,30.03,29.85,16,4,20,0.29
2012-2-17,43.2,37.8,32.9,29.8,26.7,21.9,86,65,44,30.05,29.92,12,4,24,0.00
2012-2-18,38.5,33.8,28.1,32.9,25.7,18.2,84,72,60,30.19,29.83,17,6,33,0.01
2012-2-19,32.6,27.7,22.8,21.4,19.2,16.9,79,70,61,30.19,30.11,9,2,16,0.00
2012-2-20,36.5,27.3,19.7,25.0,20.8,16.5,87,77,62,30.32,30.15,9,2,11,0.00
2012-2-21,41.2,37.4,30.0,39.2,34.2,24.9,93,88,79,30.08,29.57,17,7,27,0.10
2012-2-22,41.3,37.7,35.1,34.0,31.7,28.2,90,79,60,29.62,29.36,14,5,23,0.00
2012-2-23,42.9,37.4,32.4,33.6,31.0,27.7,91,78,56,29.58,29.37,7,2,13,0.00
2012-2-24,35.6,33.5,31.1,33.2,30.9,26.0,94,90,81,29.66,29.20,20,6,28,0.19
2012-2-25,34.3,30.9,29.0,26.1,22.9,18.8,84,73,54,30.26,29.66,20,9,29,0.01
2012-2-26,36.8,31.7,25.6,27.5,22.7,18.2,86,69,61,30.38,30.10,15,4,22,0.00
2012-2-27,44.9,35.9,31.1,28.6,26.5,24.1,86,69,48,30.40,30.00,23,6,33,0.01
2012-2-28,41.0,33.1,23.7,29.4,25.4,20.4,89,74,60,30.47,30.16,10,2,17,0.00
2012-2-29,41.8,36.7,33.2,40.8,34.1,24.5,96,91,66,30.10,29.43,15,3,19,0.57
2012-3-1,42.9,39.0,34.9,39.8,33.8,32.6,96,82,69,29.83,29.47,14,5,21,0.03
2012-3-2,49.6,41.7,36.4,47.9,36.8,32.8,95,83,70,29.83,29.04,26,6,42,0.32
2012-3-3,41.6,36.0,30.6,35.6,27.4,22.8,82,71,62,29.66,29.11,25,11,44,0.00
2012-3-4,32.1,28.0,23.7,26.2,20.9,18.0,88,75,62,29.89,29.66,13,4,18,0.00
2012-3-5,30.5,25.5,20.7,18.3,15.3,10.1,83,66,49,30.37,29.89,15,4,20,0.00
2012-3-6,53.2,40.6,26.8,38.5,28.9,17.3,78,64,52,30.37,30.00,19,7,30,0.00
2012-3-7,65.9,58.3,51.1,47.8,39.7,32.1,60,50,45,30.06,29.82,23,13,39,0.00
2012-3-8,62.1,48.2,33.2,52.3,40.5,25.5,90,75,60,30.07,29.69,31,11,40,0.05
2012-3-9,35.2,32.4,24.7,28.1,20.1,11.6,84,61,43,30.49,30.03,30,8,32,0.00
2012-3-10,47.2,34.0,19.7,31.0,20.7,11.6,80,59,45,30.53,30.17,20,6,31,0.00
2012-3-11,66.2,52.0,36.9,37.0,32.7,28.7,72,50,32,30.26,30.14,16,5,24,0.00
2012-3-12,59.3,51.2,42.6,56.1,45.8,33.8,95,82,53,30.15,29.70,14,3,30,0.49
2012-3-13,63.5,55.8,48.9,53.0,43.7,31.9,94,68,34,30.04,29.77,19,6,26,0.09
2012-3-14,71.9,55.6,37.4,54.3,39.2,30.4,78,56,34,30.11,29.96,10,2,15,0.00
2012-3-15,75.0,64.7,55.8,62.9,57.1,51.4,89,77,64,29.98,29.87,14,3,20,0.00
2012-3-16,68.7,61.2,55.6,60.0,57.1,53.3,94,87,73,30.07,29.92,7,1,11,0.00
2012-3-17,75.0,60.9,51.5,61.9,54.8,50.4,97,83,55,30.13,30.01,10,2,18,0.00
2012-3-18,74.6,62.1,49.7,60.6,55.6,48.0,95,81,57,30.05,29.95,13,2,15,0.00
2012-3-19,74.6,61.4,53.1,62.4,56.7,52.0,97,86,65,30.07,29.99,11,3,17,0.01
2012-3-20,77.8,65.6,55.4,62.5,57.8,53.1,92,77,56,30.09,30.02,7,2,15,0.00
2012-3-21,83.3,67.3,54.8,62.0,57.0,52.2,92,72,45,30.13,30.02,11,1,18,0.00
2012-3-22,82.3,67.8,53.5,63.0,57.8,51.0,92,72,51,30.07,30.00,7,2,13,0.00
2012-3-23,71.9,63.5,55.1,59.3,56.2,52.2,91,78,63,30.01,29.82,11,2,16,0.00
2012-3-24,60.1,56.0,53.0,54.4,51.7,47.7,94,86,72,29.83,29.76,7,2,12,0.03
2012-3-25,70.7,57.2,45.6,54.8,49.6,41.9,94,78,51,29.99,29.79,11,3,18,0.02
2012-3-26,47.2,37.5,30.1,32.8,24.7,19.0,76,60,43,30.39,30.01,17,7,25,0.00
2012-3-27,50.0,38.8,26.9,36.0,25.7,20.3,79,60,41,30.38,29.82,12,4,29,0.00
2012-3-28,64.1,55.0,43.7,51.1,41.4,32.3,74,60,50,29.90,29.60,23,10,33,0.00
2012-3-29,43.4,40.0,35.5,32.5,31.0,28.0,74,70,64,30.14,29.90,15,4,18,0.00
2012-3-30,39.7,35.2,31.7,35.4,31.1,26.6,93,85,75,30.11,29.77,17,5,25,0.54
2012-3-31,43.8,38.9,34.5,35.0,33.1,31.1,91,80,70,29.96,29.86,7,2,15,0.00
2012-4-1,53.3,44.2,36.9,44.5,38.3,32.6,87,80,71,29.88,29.64,8,3,14,0.00
2012-4-2,56.0,44.6,34.5,40.1,35.3,26.2,92,72,52,30.03,29.82,7,2,17,0.00
2012-4-3,63.3,47.9,35.5,49.2,38.0,26.2,82,69,58,30.00,29.79,9,1,23,0.00
2012-4-4,59.0,49.5,39.3,44.8,34.9,27.8,84,59,38,29.89,29.82,11,4,22,0.00
2012-4-5,46.0,39.8,33.7,31.5,29.5,27.0,83,67,54,30.11,29.89,18,6,21,0.00
2012-4-6,58.2,44.0,33.8,34.0,29.4,25.7,79,59,33,30.24,30.11,6,2,15,0.00
2012-4-7,64.0,48.5,32.8,36.3,30.7,26.4,79,54,28,30.27,30.08,8,1,14,0.00
2012-4-8,59.8,52.6,45.0,43.7,34.2,25.1,77,52,27,30.08,29.91,26,9,34,0.00
2012-4-9,59.1,50.1,39.8,38.3,32.4,23.3,82,54,31,29.93,29.71,23,7,33,0.00
2012-4-10,46.7,41.7,36.6,32.1,29.1,25.1,76,61,44,29.94,29.76,19,10,27,0.00
2012-4-11,51.5,42.0,34.9,35.5,32.7,30.3,87,71,45,30.17,29.93,11,5,21,0.00
2012-4-12,57.5,44.0,30.1,36.7,32.8,27.5,91,67,43,30.20,30.09,5,1,12,0.00
2012-4-13,63.3,49.7,32.8,38.2,34.2,28.8,85,58,37,30.24,30.09,11,2,16,0.00
2012-4-14,64.4,54.1,43.1,56.4,46.0,34.3,88,74,56,30.08,29.81,13,4,22,0.09
2012-4-15,76.1,64.4,57.0,64.7,58.5,54.8,96,82,59,29.83,29.69,19,5,25,0.81
2012-4-16,69.9,63.2,48.8,60.7,51.4,37.0,83,66,50,30.02,29.55,37,11,46,0.01
2012-4-17,56.1,45.8,37.0,38.0,33.5,30.5,79,63,41,30.31,30.04,14,4,24,0.00
2012-4-18,60.1,47.5,32.7,41.0,35.7,29.8,89,66,41,30.30,29.95,10,2,20,0.00
2012-4-19,71.2,55.1,45.6,54.2,46.2,38.1,85,73,55,29.94,29.81,7,2,15,0.07
2012-4-20,73.6,51.5,38.3,54.0,44.3,35.9,91,79,49,29.85,29.57,18,5,25,0.28
2012-4-21,49.2,41.7,37.5,36.5,33.8,30.6,91,74,55,30.00,29.82,15,5,22,0.03
2012-4-22,51.1,43.4,36.8,34.2,30.3,25.7,84,62,44,29.98,29.88,19,8,27,0.00
2012-4-23,54.4,47.1,40.4,29.1,24.2,18.5,60,42,25,29.87,29.51,22,9,33,0.00
2012-4-24,59.1,49.9,40.9,31.5,26.1,22.5,54,40,27,29.62,29.42,29,12,33,0.00
2012-4-25,63.2,53.1,40.6,46.6,34.4,29.2,79,50,35,29.77,29.64,11,3,17,0.00
2012-4-26,56.2,50.6,41.4,47.9,42.5,29.0,87,74,53,29.97,29.58,16,5,29,0.00
2012-4-27,55.5,43.4,33.0,30.8,26.4,22.5,76,54,28,30.20,29.99,13,4,26,0.00
2012-4-28,48.1,41.3,36.0,30.4,27.3,25.1,70,58,43,30.23,30.15,12,2,14,0.00
2012-4-29,62.7,46.4,28.8,33.7,26.1,19.6,84,49,29,30.31,30.19,7,1,15,0.00
2012-4-30,51.2,46.8,42.1,47.9,40.2,21.6,94,79,41,30.19,29.85,10,2,16,0.45
2012-5-1,57.3,53.1,49.2,50.8,49.6,47.8,96,88,78,30.02,29.85,6,1,12,0.02
2012-5-2,84.0,64.0,50.0,69.0,55.9,47.5,95,77,49,29.92,29.75,11,3,25,0.00
2012-5-3,88.1,72.9,60.3,69.3,62.3,56.1,92,72,45,29.91,29.73,21,5,33,0.29
2012-5-4,76.5,66.0,56.1,65.4,61.6,52.3,95,86,67,29.95,29.83,12,3,23,1.03
2012-5-5,69.0,59.5,53.1,54.0,50.6,46.3,85,73,57,30.04,29.93,12,3,17,0.00
2012-5-6,68.5,59.3,48.1,47.5,42.4,36.5,80,56,32,30.08,29.92,7,2,17,0.00
2012-5-7,59.0,55.0,50.5,57.0,50.7,42.5,95,86,62,29.98,29.73,9,1,11,0.38
2012-5-8,71.6,62.9,54.9,57.2,52.9,44.9,95,72,49,29.75,29.68,16,4,19,0.01
2012-5-9,63.1,55.0,49.4,51.7,47.5,44.5,92,76,57,29.79,29.68,15,3,27,0.15
2012-5-10,63.3,53.6,42.6,48.0,39.6,34.2,93,62,34,29.93,29.77,13,4,22,0.00
2012-5-11,74.8,61.8,44.6,45.0,41.9,39.1,82,51,32,30.07,29.93,11,3,23,0.00
2012-5-12,69.0,62.3,56.7,59.8,51.4,42.9,94,69,50,30.14,30.06,9,2,13,0.08
2012-5-13,73.2,59.7,47.6,56.5,48.3,42.6,94,69,44,30.19,30.04,7,2,11,0.08
2012-5-14,76.8,63.2,46.6,54.0,46.2,41.8,90,58,35,30.06,29.92,10,2,13,0.00
2012-5-15,81.8,68.2,50.1,52.8,47.0,40.9,74,49,31,29.93,29.74,12,2,20,0.00
2012-5-16,65.9,57.6,48.6,56.1,44.4,37.5,90,64,43,30.08,29.77,14,4,31,0.03
2012-5-17,70.2,55.3,38.7,43.8,40.2,35.5,90,60,36,30.18,30.07,7,1,13,0.00
2012-5-18,74.7,60.7,45.8,47.2,43.8,40.0,89,58,31,30.12,30.00,7,1,13,0.00
2012-5-19,84.3,69.5,49.2,55.2,50.1,44.3,83,53,34,30.08,30.01,12,2,18,0.00
2012-5-20,87.1,72.9,54.4,58.9,54.1,50.0,85,55,31,30.09,29.93,10,2,16,0.00
2012-5-21,78.8,68.2,57.9,63.7,57.8,52.4,86,70,52,29.95,29.87,19,4,22,0.00
2012-5-22,71.9,60.3,54.0,56.0,51.8,49.3,85,74,55,29.94,29.83,7,2,16,0.00
2012-5-23,76.0,63.1,46.2,57.9,52.7,44.0,93,71,51,29.91,29.79,9,1,16,0.00
2012-5-24,82.8,70.7,56.5,63.7,59.1,51.2,91,68,49,29.87,29.70,17,3,23,0.00
2012-5-25,85.0,77.8,69.2,65.7,60.5,53.8,71,57,36,30.00,29.73,19,5,25,0.00
2012-5-26,73.2,67.4,61.4,59.8,54.9,50.1,83,65,53,30.19,30.02,6,1,14,0.06
2012-5-27,80.1,67.8,57.9,65.5,58.0,49.6,85,71,58,30.09,29.87,10,2,22,0.12
2012-5-28,91.9,79.2,63.1,69.7,64.7,60.1,92,64,41,29.86,29.62,16,4,24,0.00
2012-5-29,83.4,77.2,70.3,66.4,58.5,48.8,78,55,34,29.69,29.59,16,5,26,0.00
2012-5-30,70.5,64.2,55.5,52.8,49.4,47.4,82,59,46,29.83,29.70,10,3,19,0.00
2012-5-31,64.8,55.3,48.7,51.0,45.8,42.2,87,71,52,29.95,29.82,11,2,23,0.01
2012-6-1,60.7,53.6,48.9,59.0,51.2,44.3,95,91,84,29.81,29.43,22,6,22,0.36
2012-6-2,70.9,59.1,49.5,51.0,46.9,43.2,87,66,37,29.63,29.53,26,10,39,0.01
2012-6-3,76.1,66.1,57.0,54.8,52.1,48.5,84,63,41,29.72,29.58,19,7,31,0.01
2012-6-4,69.1,61.0,52.2,54.9,52.3,49.2,92,74,58,29.85,29.70,11,2,19,0.00
2012-6-5,69.2,60.9,52.9,52.2,49.9,48.1,91,69,48,29.96,29.85,19,4,21,0.00
2012-6-6,76.6,63.3,49.0,57.3,50.6,45.9,90,66,39,30.00,29.91,11,2,16,0.11
2012-6-7,79.8,68.7,56.5,55.8,53.5,51.2,84,61,37,30.00,29.92,11,3,17,0.00
2012-6-8,82.6,71.9,59.8,56.7,53.9,50.2,77,55,38,29.96,29.81,16,4,23,0.00
2012-6-9,87.4,78.2,69.5,60.3,56.7,52.1,65,48,37,29.85,29.77,15,4,22,0.00
2012-6-10,89.4,78.8,64.8,61.4,58.5,55.8,79,52,33,29.95,29.84,11,2,17,0.00
2012-6-11,76.4,72.2,64.6,68.6,63.7,56.5,87,75,52,29.91,29.77,9,2,20,0.00
2012-6-12,77.9,71.4,58.5,68.6,60.6,52.4,94,71,46,30.02,29.71,18,4,23,0.29
2012-6-13,72.0,59.7,47.9,52.5,46.1,41.0,87,63,43,30.16,30.03,7,2,15,0.00
2012-6-14,76.5,63.2,48.3,54.8,49.9,43.1,90,64,42,30.17,30.08,9,2,17,0.00
2012-6-15,83.1,71.8,56.6,64.7,57.6,50.4,90,64,41,30.11,30.05,8,1,15,0.00
2012-6-16,84.6,74.5,62.5,66.0,62.7,59.5,91,68,49,30.10,29.89,15,3,21,0.00
2012-6-17,79.1,73.9,67.9,69.6,66.5,62.2,93,78,65,29.87,29.72,7,2,19,0.31
2012-6-18,81.6,70.9,57.2,70.5,62.8,54.9,92,77,52,29.83,29.70,13,2,26,0.12
2012-6-19,93.6,84.4,75.3,71.5,68.6,65.8,80,60,46,29.90,29.77,14,5,25,0.00
2012-6-20,91.2,83.9,72.5,69.0,65.4,62.6,76,55,41,30.00,29.81,18,4,24,0.00
2012-6-21,90.0,78.7,68.8,72.1,66.3,62.5,89,67,49,29.86,29.70,23,6,34,0.03
2012-6-22,82.5,71.2,63.2,64.8,59.4,53.8,90,69,39,29.90,29.82,9,2,28,0.00
2012-6-23,82.8,70.8,57.8,59.2,55.8,53.3,92,62,40,29.98,29.90,4,1,12,0.00
2012-6-24,83.8,74.4,66.0,65.4,61.4,56.9,89,66,44,29.96,29.78,9,2,20,0.02
2012-6-25,72.0,65.9,58.5,61.1,51.2,46.2,84,61,42,29.97,29.85,17,4,23,0.00
2012-6-26,80.1,67.9,53.1,53.5,50.8,46.9,80,57,37,29.98,29.85,15,4,21,0.00
2012-6-27,87.5,75.5,62.0,58.3,54.1,51.2,69,49,31,29.93,29.72,15,3,20,0.00
2012-6-28,97.0,83.0,67.3,77.0,65.5,54.2,69,56,46,29.76,29.57,14,3,22,0.00
2012-6-29,89.0,81.4,72.6,73.7,65.3,58.4,90,61,38,29.75,29.65,13,3,23,0.00
2012-6-30,91.5,80.8,71.3,67.1,63.1,59.4,71,56,36,29.73,29.66,14,5,22,0.00
2012-7-1,90.1,77.7,63.8,65.2,61.4,58.4,83,59,40,29.88,29.74,9,2,16,0.00
2012-7-2,95.9,79.8,63.8,68.2,63.3,58.2,84,60,36,29.94,29.84,11,1,15,0.00
2012-7-3,83.0,73.2,67.9,73.0,68.2,64.8,95,85,65,29.87,29.73,13,2,38,2.83
2012-7-4,96.7,83.0,70.9,77.6,72.9,68.4,94,74,49,29.77,29.69,13,3,21,0.02
2012-7-5,90.9,79.4,69.5,75.1,71.9,65.2,91,79,60,29.89,29.76,15,2,40,0.52
2012-7-6,98.7,87.2,76.3,77.8,74.6,70.7,85,68,47,29.88,29.80,6,1,10,0.00
2012-7-7,89.0,82.9,72.9,78.4,73.1,62.3,89,73,60,29.89,29.77,13,2,17,0.00
2012-7-8,82.9,74.6,66.8,65.3,61.5,59.1,77,64,52,29.96,29.89,10,2,18,0.00
2012-7-9,80.3,71.8,60.3,64.7,60.2,56.2,88,68,52,29.99,29.90,9,1,13,0.00
2012-7-10,83.2,73.0,63.4,62.7,58.9,55.8,86,63,41,30.07,29.96,7,2,14,0.00
2012-7-11,84.8,72.3,57.2,63.3,57.3,51.8,92,63,39,30.11,30.04,4,1,12,0.00
2012-7-12,87.1,74.5,57.9,62.2,57.2,52.9,84,57,39,30.08,30.00,5,1,12,0.00
2012-7-13,89.0,78.6,64.5,69.2,63.0,58.2,81,61,40,30.05,29.98,10,2,18,0.00
2012-7-14,82.9,76.4,68.3,69.6,66.8,63.6,86,73,61,30.04,29.93,12,2,16,0.00
2012-7-15,90.8,80.1,73.5,72.9,69.5,66.3,90,72,46,29.95,29.83,11,2,20,0.01
2012-7-16,92.6,81.6,69.0,73.8,69.6,66.7,93,69,45,29.91,29.74,4,1,13,0.00
2012-7-17,97.4,86.8,77.6,73.8,70.1,66.7,75,59,39,29.76,29.63,18,6,26,0.00
2012-7-18,84.6,75.6,71.2,71.6,68.7,64.1,93,80,64,29.91,29.71,5,1,14,0.19
2012-7-19,72.8,68.8,65.6,67.0,64.6,62.4,94,87,74,29.91,29.84,12,3,16,0.44
2012-7-20,78.7,70.5,61.8,63.9,58.5,53.4,94,68,44,30.00,29.92,12,3,20,0.00
2012-7-21,86.8,73.2,56.9,66.7,60.1,54.3,92,66,44,30.02,29.91,5,1,14,0.00
2012-7-22,89.6,80.9,69.7,70.3,66.8,61.6,80,63,52,29.98,29.89,14,3,21,0.00
2012-7-23,95.1,84.9,76.4,72.3,69.3,67.3,79,61,46,29.93,29.67,13,5,29,0.00
2012-7-24,83.8,77.2,65.0,70.4,64.1,54.6,81,65,46,29.92,29.73,10,2,16,0.00
2012-7-25,84.4,72.7,56.3,71.8,60.3,52.4,87,67,48,29.92,29.53,12,3,20,0.00
2012-7-26,83.0,74.2,69.2,74.7,69.7,65.9,94,86,71,29.66,29.51,13,4,31,0.95
2012-7-27,79.6,70.5,66.1,69.1,67.1,64.0,95,89,68,29.83,29.64,7,1,18,0.27
2012-7-28,81.8,72.4,64.7,66.1,63.1,59.8,94,75,51,30.01,29.84,13,3,16,0.00
2012-7-29,84.4,71.7,58.1,62.6,59.2,55.2,90,67,44,30.03,29.93,6,1,13,0.00
2012-7-30,85.4,75.8,62.6,68.5,64.7,59.9,92,70,52,29.95,29.81,11,2,16,0.00
2012-7-31,84.2,75.1,65.7,69.8,66.4,63.0,92,75,60,29.83,29.74,12,2,21,0.10
2012-8-1,85.0,73.0,63.1,66.4,63.3,60.7,93,74,49,29.85,29.80,7,2,13,0.00
2012-8-2,87.6,75.7,64.1,72.0,65.5,60.5,89,73,47,29.83,29.75,10,2,18,0.00
2012-8-3,89.3,80.9,70.7,70.8,68.8,65.6,90,68,50,29.87,29.80,7,2,14,0.00
2012-8-4,88.2,78.7,68.5,74.1,70.6,66.1,92,77,63,29.90,29.77,10,2,22,0.00
2012-8-5,83.2,77.7,67.2,71.9,61.9,55.5,93,60,47,30.03,29.81,18,7,27,0.05
2012-8-6,81.4,70.6,56.6,59.6,55.6,52.3,87,61,41,30.09,29.93,7,1,17,0.00
2012-8-7,89.1,74.8,57.8,66.0,59.4,55.0,91,62,36,29.93,29.80,13,3,19,0.00
2012-8-8,84.6,75.1,67.5,66.0,62.5,56.8,90,67,45,29.90,29.83,10,2,17,0.00
2012-8-9,69.5,65.2,62.3,64.6,63.0,60.6,95,92,83,29.89,29.75,6,1,11,0.75
2012-8-10,77.6,66.1,62.7,67.1,63.4,61.2,96,91,65,29.73,29.55,10,2,20,1.09
2012-8-12,78.5,72.7,66.4,62.1,60.8,58.9,85,67,51,29.92,29.88,7,1,13,0.00
2012-8-13,76.9,68.3,63.3,62.8,60.6,58.5,93,78,55,29.94,29.88,5,1,10,0.10
2012-8-14,78.7,67.8,61.9,64.2,61.8,59.4,95,82,52,29.87,29.79,6,1,10,0.31
2012-8-15,84.0,70.7,59.1,64.5,59.9,57.1,93,71,43,29.89,29.83,6,1,10,0.00
2012-8-16,80.6,72.3,62.9,66.6,63.8,60.5,93,76,56,29.88,29.65,15,4,24,0.00
2012-8-17,73.8,67.5,60.9,64.0,57.3,52.2,91,71,49,29.89,29.72,14,4,20,0.00
2012-8-18,75.6,63.7,50.9,52.0,49.1,46.9,87,61,38,29.96,29.88,6,1,10,0.00
2012-8-19,78.8,66.1,54.0,57.2,53.5,50.2,88,66,42,29.89,29.81,2,0,13,0.00
2012-8-20,75.0,65.6,56.4,58.4,54.3,51.3,92,69,45,29.92,29.84,9,1,12,0.00
2012-8-21,74.4,64.3,52.9,60.8,56.1,50.2,91,76,56,30.02,29.93,11,1,16,0.02
2012-8-22,82.0,68.8,55.2,60.0,56.9,52.9,92,69,42,30.07,29.99,9,2,15,0.00
2012-8-23,85.2,70.8,55.9,61.4,57.9,53.3,91,67,40,30.07,30.00,9,1,14,0.00
2012-8-24,87.0,73.5,59.2,68.0,61.7,56.9,93,70,44,30.06,29.97,14,2,16,0.00
2012-8-25,88.6,75.9,62.4,67.9,64.1,60.2,93,70,43,30.05,30.00,10,2,19,0.00
2012-8-26,84.9,75.3,65.3,69.2,65.7,62.6,92,73,55,30.07,29.92,12,3,19,0.00
2012-8-27,83.6,74.7,68.6,71.9,67.6,61.8,95,80,55,29.95,29.84,7,1,12,0.08
2012-8-28,77.5,69.2,62.7,64.9,60.9,57.5,93,76,55,30.01,29.92,12,3,16,0.01
2012-8-29,80.9,67.9,55.3,60.5,57.3,52.7,91,71,46,30.05,29.95,5,0,11,0.00
2012-8-30,84.6,71.6,59.4,61.7,58.9,56.4,92,67,43,30.02,29.90,15,4,18,0.00
2012-8-31,93.7,79.4,63.7,67.8,62.9,58.4,83,59,42,29.97,29.86,15,4,25,0.00
2012-9-1,85.2,74.1,64.0,64.0,59.8,57.3,82,63,42,30.04,29.96,5,1,10,0.00
2012-9-2,81.9,72.7,66.1,64.2,62.1,58.3,89,71,45,29.98,29.89,10,3,19,0.00
2012-9-3,87.2,75.3,63.2,71.8,65.6,57.1,85,73,58,29.91,29.80,6,1,12,0.00
2012-9-4,82.1,73.9,69.3,71.6,69.5,66.2,94,87,65,29.83,29.76,7,1,13,0.58
2012-9-5,79.7,71.9,64.1,70.7,67.0,62.3,95,85,70,29.81,29.70,10,2,19,0.00
2012-9-6,86.3,73.5,64.5,66.9,63.9,61.5,92,74,47,29.83,29.71,4,1,10,0.00
2012-9-7,79.4,69.8,61.4,66.5,62.5,59.3,93,79,56,29.83,29.58,10,2,20,0.06
2012-9-8,68.9,62.3,57.2,58.6,54.2,50.4,93,76,54,29.77,29.54,18,7,25,0.33
2012-9-9,69.5,60.5,51.2,52.6,49.4,45.9,91,69,44,30.03,29.77,16,2,19,0.00
2012-9-10,73.4,60.6,49.2,51.9,48.2,45.5,89,67,40,30.16,30.03,9,2,15,0.00
2012-9-11,80.2,65.7,51.1,57.5,53.5,48.0,90,67,44,30.16,30.06,11,2,21,0.00
2012-9-12,83.2,70.2,56.7,62.0,57.0,51.6,83,65,44,30.16,30.07,10,2,18,0.00
2012-9-13,82.3,70.2,59.0,65.2,59.2,56.4,91,71,43,30.16,30.08,13,3,19,0.00
2012-9-14,69.5,60.8,53.4,57.2,52.3,47.2,93,76,45,30.20,30.12,14,3,21,0.48
2012-9-15,70.2,59.7,49.6,51.4,49.1,45.9,88,70,48,30.27,30.10,9,3,17,0.00
2012-9-16,77.5,63.8,50.8,54.7,51.0,46.8,89,66,40,30.10,29.94,11,2,17,0.00
2012-9-17,76.4,65.9,55.1,58.9,53.9,48.4,88,66,46,29.95,29.63,15,2,21,0.00
2012-9-18,65.4,58.5,48.9,62.3,50.8,39.6,93,77,57,29.88,29.51,18,5,26,0.03
2012-9-19,65.4,53.1,40.7,44.2,40.4,37.7,90,65,41,30.04,29.89,12,3,18,0.00
2012-9-20,67.2,61.1,54.9,55.7,48.0,41.5,74,62,49,29.91,29.77,15,4,26,0.01
2012-9-21,69.6,58.3,49.4,50.7,45.6,41.5,91,66,40,29.85,29.74,13,3,24,0.11
2012-9-22,58.7,53.9,47.9,50.6,45.4,40.6,94,75,54,29.99,29.64,16,5,28,0.03
2012-9-23,55.0,49.3,42.6,42.3,40.1,37.5,87,71,53,30.14,30.00,13,4,23,0.00
2012-9-24,63.7,52.0,38.7,41.3,38.7,36.0,91,64,41,30.13,29.85,20,6,29,0.00
2012-9-25,68.3,58.6,47.7,55.5,46.5,37.6,88,65,50,29.89,29.79,14,4,19,0.00
2012-9-26,66.5,59.9,50.9,60.1,55.1,45.6,95,85,62,30.09,29.81,5,2,12,0.00
2012-9-27,67.0,55.1,45.8,46.1,44.3,41.8,92,69,46,30.19,30.10,8,1,16,0.00
2012-9-28,68.2,57.6,48.3,50.8,47.5,43.3,89,71,48,30.11,30.01,5,1,12,0.00
2012-9-29,70.0,56.6,45.0,51.3,46.7,42.8,93,73,43,30.03,29.88,10,2,16,0.00
2012-9-30,64.0,54.8,48.8,51.6,47.7,45.0,93,78,55,29.90,29.85,7,2,16,0.01
2012-10-1,67.3,54.7,42.9,50.3,46.1,41.0,94,75,49,29.90,29.80,6,0,13,0.00
2012-10-2,69.6,59.6,52.8,55.8,51.9,47.8,91,76,59,29.85,29.76,8,2,13,0.10
2012-10-3,66.2,61.5,58.4,61.2,56.8,54.7,95,85,73,30.00,29.83,7,1,16,0.14
2012-10-4,75.4,64.6,55.8,56.9,54.8,52.6,91,72,49,30.00,29.91,15,4,22,0.00
2012-10-5,64.3,54.9,45.8,59.5,48.2,42.3,91,78,62,29.99,29.89,11,4,23,0.14
2012-10-6,49.2,45.6,41.4,43.4,38.1,33.9,92,76,58,30.05,29.86,19,5,23,0.01
2012-10-7,50.1,44.2,38.7,39.1,36.4,33.2,88,75,53,30.08,30.02,7,2,15,0.00
2012-10-8,54.5,44.5,32.1,39.0,33.8,30.0,92,69,44,30.17,30.06,11,2,23,0.00
2012-10-9,61.1,49.4,35.5,41.0,37.1,31.7,87,64,47,30.07,29.77,13,4,26,0.00
2012-10-10,55.7,46.2,38.1,42.4,36.7,28.7,89,70,53,30.09,29.70,17,7,32,0.11
2012-10-11,62.0,46.3,31.9,43.1,34.4,28.7,88,66,40,30.13,29.94,18,5,31,0.00
2012-10-12,52.8,44.0,36.5,37.4,34.3,30.5,83,70,45,30.38,30.11,11,2,16,0.01
2012-10-13,59.4,43.3,31.9,57.7,40.4,29.0,94,89,82,30.36,29.82,10,2,18,0.45
2012-10-14,68.0,64.6,60.1,62.3,60.7,56.7,94,88,73,29.82,29.33,18,7,33,0.05
2012-10-15,60.4,50.1,47.0,55.5,44.0,38.8,87,80,73,29.86,29.35,26,10,32,0.00
2012-10-16,57.6,48.7,36.3,45.3,38.9,32.9,88,70,52,29.93,29.72,6,2,16,0.00
2012-10-17,70.4,60.0,50.1,55.7,50.4,46.1,90,73,51,29.73,29.53,12,4,29,0.29
2012-10-18,61.1,56.4,51.7,55.8,46.5,38.3,93,71,48,29.61,29.33,13,4,31,0.22
2012-10-19,56.8,50.9,46.0,46.7,43.7,39.7,92,77,57,29.61,29.49,13,3,25,0.10
2012-10-20,53.3,48.5,45.4,45.5,44.5,43.5,94,86,74,29.83,29.52,10,4,19,0.07
2012-10-21,62.3,50.9,41.4,47.0,43.2,39.5,94,77,52,30.03,29.83,7,2,16,0.00
2012-10-22,68.9,54.7,40.2,55.8,48.0,37.8,93,79,63,30.04,29.91,5,1,10,0.01
2012-10-23,68.0,62.4,59.0,61.1,59.2,55.1,95,89,78,29.93,29.83,8,1,15,0.30
2012-10-24,76.4,66.3,59.4,63.5,60.3,58.0,95,82,63,29.96,29.88,9,1,15,0.01
2012-10-29,42.7,41.3,38.8,38.1,36.3,34.5,88,82,74,29.98,29.65,24,14,35,0.11
2012-10-30,44.4,40.4,36.9,40.7,37.6,34.5,92,90,86,29.63,29.36,27,13,36,0.32
2012-10-31,42.5,39.7,37.4,39.2,36.7,35.1,92,89,83,29.58,29.41,20,10,24,0.02
2012-11-1,46.6,42.3,39.9,37.8,35.1,31.4,91,76,59,29.71,29.58,16,7,23,0.03
2012-11-2,42.0,39.3,36.2,32.5,31.1,28.7,84,72,65,30.01,29.71,11,5,25,0.11
2012-11-3,41.4,37.0,32.0,32.5,30.4,28.5,88,77,69,30.15,30.02,9,3,16,0.00
2012-11-4,39.8,34.9,31.0,30.1,27.9,26.0,83,75,66,30.16,30.11,11,3,14,0.00
2012-11-5,42.0,36.9,32.8,33.2,30.1,27.6,82,76,66,30.18,30.13,7,1,14,0.00
2012-11-6,40.4,35.7,28.6,32.5,29.3,25.7,89,78,64,30.12,29.98,12,2,15,0.00
2012-11-7,49.4,41.9,33.9,33.9,31.0,29.0,83,66,49,30.10,30.00,4,2,12,0.00
2012-11-8,48.4,37.9,29.3,34.9,30.9,25.9,88,77,59,30.18,30.09,3,0,10,0.00
2012-11-9,52.7,43.4,33.5,42.0,37.2,29.8,90,79,63,30.14,30.05,11,2,14,0.00
2012-11-10,57.1,50.6,45.2,48.4,45.7,41.0,92,84,72,30.10,29.97,10,2,18,0.01
2012-11-11,66.9,60.0,52.5,51.4,46.1,41.2,83,61,46,30.07,29.91,16,7,30,0.00
2012-11-12,60.9,47.6,35.7,53.1,40.0,25.0,92,76,51,30.18,29.81,15,7,31,0.40
2012-11-13,35.3,32.8,26.7,28.1,23.0,19.9,81,67,57,30.52,30.20,14,4,17,0.00
2012-11-14,41.6,32.6,21.9,29.6,25.4,18.8,88,76,58,30.57,30.40,6,1,12,0.00
2012-11-15,48.1,37.5,30.4,34.5,30.1,25.9,87,75,59,30.40,30.28,4,0,6,0.00
2012-11-16,54.8,40.1,28.4,39.4,32.5,25.8,90,76,46,30.47,30.32,5,1,10,0.00
2012-11-17,52.1,38.8,29.3,42.0,33.2,27.5,94,82,57,30.57,30.46,4,0,10,0.01
2012-11-18,53.0,40.7,34.0,47.1,35.9,31.4,94,84,53,30.52,30.39,7,1,14,0.01
2012-11-19,54.7,41.5,31.7,45.8,36.4,29.6,94,83,54,30.40,30.15,4,1,11,0.01
2012-11-20,55.3,46.3,37.8,45.2,41.0,35.6,94,82,63,30.14,30.02,3,0,6,0.01
2012-11-21,58.5,47.2,35.9,45.4,40.8,33.8,93,79,58,30.18,30.09,5,1,14,0.00
2012-11-22,61.2,49.9,39.1,47.6,43.2,36.4,94,79,59,30.10,29.75,16,4,27,0.07
2012-11-23,54.4,41.9,33.3,48.0,34.5,22.7,92,75,62,29.92,29.61,20,10,33,0.10
2012-11-24,33.9,32.7,31.0,23.4,21.9,20.5,71,64,59,30.04,29.92,19,10,26,0.00
2012-11-25,36.3,34.2,29.3,29.7,27.8,25.1,84,77,69,29.94,29.78,11,4,16,0.00
2012-11-26,34.5,33.2,31.7,26.1,23.6,20.0,77,68,60,30.24,29.95,10,3,13,0.00
2012-11-27,36.5,30.0,24.0,21.7,20.4,19.1,82,67,53,30.31,30.21,8,2,14,0.00
2012-11-28,38.6,33.0,28.0,26.3,23.1,19.3,72,67,59,30.26,30.14,17,4,24,0.00
2012-11-29,30.7,30.7,30.7,22.4,22.4,22.4,71,71,71,30.24,30.24,0,0,6,0.00
2012-12-1,54.4,43.8,32.3,48.6,39.9,30.0,94,86,79,30.24,29.95,12,3,21,0.00
2012-12-2,56.7,54.2,48.7,53.9,50.3,45.3,93,86,77,30.06,29.84,10,4,20,0.21
2012-12-3,59.0,50.2,41.6,57.6,48.6,40.0,96,94,90,30.09,29.85,14,3,22,0.00
2012-12-4,62.8,52.4,43.3,57.8,46.7,34.2,92,81,65,30.03,29.82,27,7,28,0.29
2012-12-5,42.3,33.5,26.4,33.2,24.6,21.2,83,70,60,30.36,30.05,15,4,23,0.00
2012-12-6,39.0,32.5,24.4,32.1,27.8,21.1,90,83,72,30.32,29.94,6,2,15,0.01
2012-12-7,43.1,40.1,35.9,40.9,37.4,31.8,94,90,84,29.92,29.84,6,1,10,0.04
2012-12-8,41.6,37.6,32.8,40.0,35.3,29.6,95,91,85,30.13,29.78,10,3,15,0.15
2012-12-9,34.4,33.1,31.7,32.2,30.0,28.6,93,88,85,30.15,29.61,9,3,17,0.01
2012-12-10,40.5,35.9,31.3,38.4,32.3,24.6,95,87,73,29.82,29.55,11,4,19,0.01
2012-12-11,35.9,31.2,26.8,27.1,23.3,20.2,79,72,62,30.09,29.82,11,5,21,0.00
2012-12-12,44.1,34.1,26.5,30.0,26.2,23.2,87,74,52,30.33,30.11,12,4,21,0.00
2012-12-13,45.5,36.2,28.0,29.7,27.4,24.4,87,71,47,30.33,30.12,13,4,21,0.00
2012-12-14,50.9,38.6,31.7,36.2,30.9,27.1,88,74,50,30.19,30.12,5,1,14,0.00
2012-12-15,43.6,38.3,31.4,40.2,35.2,29.1,95,89,75,30.15,29.67,17,4,22,0.04
2012-12-16,53.1,47.9,42.0,50.1,45.5,39.8,96,92,82,29.66,29.52,10,4,18,0.09
2012-12-17,44.0,41.5,39.1,41.0,37.2,33.7,89,85,78,29.68,29.57,9,2,16,0.00
2012-12-18,43.2,37.8,33.1,33.3,31.6,29.7,91,78,62,29.71,29.57,15,3,17,0.01
2012-12-19,40.4,36.1,30.4,35.0,32.7,27.5,93,87,77,30.10,29.70,9,2,13,0.00
2012-12-20,45.8,39.9,32.5,44.2,37.0,30.4,94,90,80,30.08,29.12,16,7,33,0.68
2012-12-21,35.3,32.0,28.9,32.7,28.0,23.9,94,85,73,29.77,29.14,27,10,37,0.01
2012-12-22,33.0,31.4,30.3,25.5,23.8,22.2,79,73,69,30.01,29.80,20,9,34,0.00
2012-12-23,34.8,29.3,22.7,26.4,23.1,19.5,88,78,69,30.00,29.85,11,3,19,0.00
2012-12-24,32.9,28.3,23.7,27.9,23.5,18.8,92,82,72,29.99,29.81,7,2,17,0.00
2012-12-25,33.8,30.0,25.5,27.5,24.9,23.0,91,81,68,30.28,29.94,10,4,16,0.04
2012-12-26,31.0,29.0,26.2,28.0,25.5,24.2,93,87,77,30.25,29.82,17,7,30,0.00
2012-12-27,31.3,27.7,18.0,29.8,24.9,15.3,94,89,80,30.12,29.82,12,4,22,0.01
2012-12-28,28.2,21.5,13.3,24.8,18.7,10.4,92,89,84,30.15,29.94,3,0,10,0.01
2012-12-29,30.3,27.4,24.7,26.3,24.3,20.4,92,88,79,29.99,29.77,15,4,17,0.00
2012-12-30,30.7,25.9,20.2,25.7,21.4,16.4,90,83,76,30.25,30.00,10,4,20,0.00
2012-12-31,35.5,28.8,20.0,29.7,23.6,16.2,86,81,75,30.15,29.87,15,6,23,0.00
2013-1-1,29.6,23.1,15.8,20.7,14.6,10.8,81,70,59,30.12,29.97,10,3,17,0.00